Time;durP1;ratioP1;P1;durP2;ratioP2;P2;SDS_P1;SDS_P2;PMS_P1;PMS_P2;Temp;Humidity;BMP_temperature;BMP_pressure;BME280_temperature;BME280_humidity;BME280_pressure;Samples;Min_cycle;Max_cycle;Signal;HPM_P1;HPM_P2
2022/12/28 11:02:31;;;;;;;2.67;1.27;;;12.70;83.30;;;9.26;67.33;95973.34;5073989;28;20162;-56
2022/12/28 11:05:04;;;;;;;2.25;1.25;;;13.30;80.80;;;9.63;66.19;95980.72;5066546;28;20082;-56
2022/12/28 11:07:38;;;;;;;2.55;1.27;;;14.20;78.70;;;9.92;63.64;95965.34;5040639;28;20020;-53
2022/12/28 11:10:27;;;;;;;1.30;1.10;;;15.10;75.70;;;9.92;62.55;95966.13;5048402;28;20515;-55
2022/12/28 11:13:01;;;;;;;1.77;1.00;;;15.90;72.20;;;10.00;62.92;95966.72;5064898;22;20063;-55
2022/12/28 11:15:33;;;;;;;1.60;1.42;;;16.50;69.70;;;10.36;63.46;95967.91;5081375;28;20036;-52
2022/12/28 11:18:15;;;;;;;2.42;1.25;;;17.00;68.40;;;10.57;60.90;95955.56;5079702;28;20493;-53
2022/12/28 11:20:53;;;;;;;1.85;1.15;;;17.50;66.30;;;10.72;59.83;95960.19;5085112;28;20461;-55
2022/12/28 11:23:30;;;;;;;1.52;1.40;;;18.00;65.00;;;11.03;59.63;95954.00;5083593;28;20057;-51
2022/12/28 11:26:00;;;;;;;1.35;1.25;;;18.40;63.30;;;10.87;57.40;95952.28;5084393;28;20110;-52
2022/12/28 11:28:26;;;;;;;3.58;1.30;;;18.80;61.20;;;11.05;61.33;95951.88;5074241;28;20411;-51
2022/12/28 11:30:53;;;;;;;1.67;1.40;;;19.10;59.90;;;11.42;58.30;95947.53;5077770;28;20029;-52
2022/12/28 11:33:45;;;;;;;1.83;1.30;;;19.30;59.10;;;11.76;56.97;95946.03;5059874;28;20089;-52
2022/12/28 11:36:29;;;;;;;2.10;1.30;;;19.70;58.20;;;11.72;54.29;95941.47;5059577;28;20032;-53
2022/12/28 11:38:56;;;;;;;1.23;1.13;;;19.90;56.90;;;11.87;55.64;95946.91;5070646;28;20497;-53
2022/12/28 11:41:39;;;;;;;1.33;1.23;;;20.20;56.30;;;12.03;57.49;95935.19;5043088;28;20043;-53
2022/12/28 11:44:29;;;;;;;1.73;1.35;;;20.40;55.10;;;12.12;53.26;95930.13;5075055;28;20478;-53
2022/12/28 11:47:31;;;;;;;1.80;1.70;;;20.80;54.10;;;12.19;53.05;95936.03;5072664;28;20082;-52
2022/12/28 11:50:40;;;;;;;2.80;1.50;;;21.00;53.50;;;12.29;54.74;95923.75;5048674;28;20112;-52
2022/12/28 11:53:34;;;;;;;1.50;1.40;;;21.20;53.20;;;11.76;55.19;95922.03;5060641;28;20092;-52
2022/12/28 11:56:18;;;;;;;1.60;1.50;;;21.40;50.90;;;11.76;53.47;95913.22;5044381;28;20108;-52
2022/12/28 11:59:26;;;;;;;3.10;1.50;;;21.40;49.90;;;11.55;56.39;95904.34;5052416;28;20026;-51
2022/12/28 12:02:19;;;;;;;2.65;2.00;;;21.30;48.70;;;12.10;53.42;95902.09;5075313;28;20028;-52
2022/12/28 12:04:45;;;;;;;2.08;1.55;;;21.30;49.10;;;11.98;54.82;95905.03;5049899;28;20047;-56
2022/12/28 12:07:26;;;;;;;2.17;1.50;;;21.40;48.40;;;12.21;54.43;95896.47;5078408;28;20032;-55
2022/12/28 12:10:32;;;;;;;1.85;1.75;;;21.40;47.70;;;12.62;52.56;95893.78;5071318;28;20478;-52
2022/12/28 12:13:25;;;;;;;4.43;1.80;;;21.50;47.90;;;12.08;52.96;95889.00;5072222;28;20047;-55
2022/12/28 12:16:04;;;;;;;2.45;1.77;;;21.60;46.30;;;11.77;52.72;95886.25;5063765;28;20020;-52
2022/12/28 12:18:56;;;;;;;1.50;1.40;;;21.50;46.20;;;11.48;52.83;95877.94;5066430;28;20028;-53
2022/12/28 12:21:43;;;;;;;3.65;1.77;;;21.40;45.80;;;11.51;53.98;95876.59;5057188;28;20670;-52
2022/12/28 12:24:26;;;;;;;2.83;1.90;;;21.20;45.40;;;11.78;54.77;95871.03;5061439;28;20172;-57
2022/12/28 12:27:31;;;;;;;2.95;1.63;;;21.00;45.40;;;11.38;54.67;95871.78;5053641;28;20034;-55
2022/12/28 12:30:05;;;;;;;3.90;1.88;;;20.90;45.30;;;11.47;54.98;95862.16;5069071;28;20020;-49
2022/12/28 12:33:28;;;;;;;1.85;1.75;;;20.80;45.30;;;11.22;56.32;95857.56;5052425;28;20123;-51
2022/12/28 12:36:25;;;;;;;3.33;1.90;;;20.80;45.40;;;11.16;54.88;95866.63;4996922;28;20045;-54
2022/12/28 12:39:40;;;;;;;1.98;1.70;;;20.50;44.80;;;10.85;55.72;95856.63;5047718;28;20032;-56
2022/12/28 12:43:07;;;;;;;1.80;1.60;;;20.20;44.60;;;10.64;56.58;95846.91;5009194;28;20040;-54
2022/12/28 12:46:28;;;;;;;2.20;1.63;;;19.50;45.20;;;10.58;57.83;95838.09;5027529;28;20143;-53
2022/12/28 12:49:44;;;;;;;2.15;1.55;;;18.90;45.40;;;10.16;58.47;95835.41;5029365;28;20063;-52
2022/12/28 12:53:16;;;;;;;2.13;1.60;;;18.30;45.90;;;9.89;59.31;95833.59;5036840;28;20032;-56
2022/12/28 12:56:24;;;;;;;2.05;1.40;;;17.80;46.40;;;9.72;59.25;95827.59;5040541;28;20502;-56
2022/12/28 13:00:05;;;;;;;1.50;1.40;;;17.40;46.80;;;9.59;61.09;95825.34;5040001;28;20056;-52
2022/12/28 13:02:55;;;;;;;2.55;1.60;;;17.00;47.50;;;9.61;59.98;95818.72;5046129;28;20430;-56
2022/12/28 13:05:28;;;;;;;2.42;1.40;;;16.80;47.80;;;9.73;59.57;95822.03;5046424;28;20480;-53
2022/12/28 13:07:59;;;;;;;2.78;1.40;;;16.70;48.30;;;9.76;59.08;95820.72;5069546;28;20045;-53
2022/12/28 13:10:43;;;;;;;1.60;1.40;;;16.80;48.50;;;9.61;58.01;95810.75;5027627;28;20162;-53
2022/12/28 13:13:34;;;;;;;1.83;1.23;;;17.00;47.90;;;9.78;58.77;95815.13;5049262;28;20040;-52
2022/12/28 13:16:17;;;;;;;1.58;1.27;;;17.10;47.70;;;9.46;58.93;95807.94;5068304;28;20439;-53
2022/12/28 13:19:06;;;;;;;1.45;1.35;;;16.90;47.00;;;9.40;59.54;95798.31;5069132;28;20047;-52
2022/12/28 13:21:48;;;;;;;1.85;1.20;;;16.90;46.90;;;9.30;59.08;95804.31;5048274;28;20032;-52
2022/12/28 13:24:39;;;;;;;2.75;1.20;;;16.90;46.80;;;9.50;58.81;95806.41;5026699;28;20019;-51
2022/12/28 13:27:20;;;;;;;1.55;1.20;;;16.90;47.10;;;9.64;58.49;95793.47;5066954;28;20034;-51
2022/12/28 13:29:53;;;;;;;1.48;1.38;;;17.20;46.90;;;9.67;57.96;95811.59;4938389;28;69749;-53
2022/12/28 13:32:35;;;;;;;2.03;1.25;;;17.30;46.40;;;9.82;58.16;95800.28;4981732;28;20030;-53
2022/12/28 13:35:01;;;;;;;1.90;1.30;;;17.30;46.40;;;10.00;58.70;95797.22;4964036;28;20021;-51
2022/12/28 13:37:36;;;;;;;1.40;1.27;;;17.30;46.80;;;9.93;56.06;95788.66;4991058;28;20029;-51
2022/12/28 13:40:14;;;;;;;1.92;1.30;;;17.40;46.60;;;9.90;57.31;95794.47;4985699;28;20101;-51
2022/12/28 13:43:24;;;;;;;1.38;1.27;;;17.50;46.20;;;10.04;57.57;95798.31;4975734;28;20116;-52
2022/12/28 13:46:06;;;;;;;1.50;1.10;;;17.70;46.30;;;10.06;57.10;95798.03;4953533;28;20507;-55
2022/12/28 13:48:45;;;;;;;2.58;1.08;;;18.00;45.80;;;9.98;55.75;95783.38;4971481;28;20065;-56
2022/12/28 13:51:17;;;;;;;2.55;1.30;;;18.10;45.00;;;10.19;55.62;95779.78;4959006;28;20029;-56
2022/12/28 13:53:56;;;;;;;1.88;1.38;;;18.30;45.00;;;10.14;55.65;95765.63;4982036;28;20489;-52
2022/12/28 13:56:26;;;;;;;1.85;1.50;;;18.40;45.10;;;10.24;55.43;95772.88;4961143;28;20536;-51
2022/12/28 13:59:09;;;;;;;1.40;1.30;;;18.50;44.80;;;10.41;56.72;95766.38;4988837;28;20025;-52
2022/12/28 14:01:48;;;;;;;1.38;1.15;;;18.70;44.50;;;10.60;55.11;95766.72;4989903;28;20048;-52
2022/12/28 14:04:23;;;;;;;1.60;1.40;;;18.90;44.50;;;10.98;54.16;95774.59;4986787;28;20025;-52
2022/12/28 14:06:55;;;;;;;1.33;1.17;;;19.10;44.40;;;11.13;53.93;95763.97;4973200;28;20117;-52
2022/12/28 14:09:22;;;;;;;1.73;1.25;;;19.30;44.10;;;11.21;53.68;95759.97;4983248;28;22202;-52
2022/12/28 14:11:50;;;;;;;2.15;1.30;;;19.30;44.10;;;11.32;52.46;95767.75;4981190;28;20116;-52
2022/12/28 14:14:17;;;;;;;1.95;1.45;;;19.30;43.80;;;11.05;54.13;95770.59;4989603;28;20052;-53
2022/12/28 14:16:45;;;;;;;2.50;1.33;;;19.20;43.20;;;10.87;54.60;95755.09;4946915;28;20034;-53
2022/12/28 14:19:11;;;;;;;1.55;1.23;;;18.90;43.10;;;10.68;54.42;95760.09;4989221;28;20025;-53
2022/12/28 14:21:44;;;;;;;1.40;1.30;;;18.70;43.10;;;10.75;54.07;95752.66;4999329;28;20026;-52
2022/12/28 14:24:15;;;;;;;1.30;1.20;;;18.40;43.30;;;10.40;53.82;95747.97;4997913;28;20088;-52
2022/12/28 14:26:58;;;;;;;1.60;1.15;;;18.30;43.30;;;10.18;56.82;95748.91;4972751;28;20091;-55
2022/12/28 14:29:33;;;;;;;1.30;1.10;;;18.10;43.20;;;10.05;55.34;95753.88;4971583;28;20053;-54
2022/12/28 14:32:07;;;;;;;2.40;1.60;;;17.80;43.40;;;9.88;55.90;95751.38;4975389;28;20030;-51
2022/12/28 14:34:37;;;;;;;4.65;1.40;;;17.50;43.60;;;9.61;57.33;95748.78;4978477;28;20037;-56
2022/12/28 14:37:08;;;;;;;2.33;1.40;;;17.00;43.60;;;9.52;59.01;95750.28;4980644;28;20026;-55
2022/12/28 14:39:44;;;;;;;2.53;0.90;;;16.60;44.10;;;9.41;57.45;95741.44;4960589;28;20072;-52
2022/12/28 14:42:25;;;;;;;1.45;1.05;;;16.30;44.60;;;9.29;58.82;95748.78;4965565;28;20394;-52
2022/12/28 14:44:50;;;;;;;1.70;1.25;;;16.00;45.10;;;9.29;58.95;95740.78;4973140;28;20021;-54
2022/12/28 14:47:45;;;;;;;1.02;0.93;;;15.60;45.60;;;9.16;59.63;95742.81;4971834;28;20035;-57
2022/12/28 14:50:28;;;;;;;1.88;1.52;;;15.30;46.10;;;9.02;59.99;95736.28;4978805;28;20052;-52
2022/12/28 14:53:20;;;;;;;3.17;1.38;;;15.00;46.50;;;8.94;61.26;95728.75;4967832;28;20026;-51
2022/12/28 14:55:52;;;;;;;2.67;1.60;;;14.70;47.10;;;8.80;61.55;95731.00;4968410;28;20026;-56
2022/12/28 14:58:53;;;;;;;1.33;1.00;;;14.50;47.50;;;8.71;62.86;95722.69;4969173;28;20037;-59
2022/12/28 15:01:38;;;;;;;1.48;1.10;;;14.50;48.60;;;8.65;63.27;95722.84;4965474;28;20049;-55
2022/12/28 15:04:05;;;;;;;1.52;1.13;;;14.40;48.30;;;8.49;64.76;95733.31;4952709;28;20025;-53
2022/12/28 15:06:34;;;;;;;1.40;1.00;;;14.20;48.60;;;8.41;63.06;95725.78;4991740;28;20103;-53
2022/12/28 15:09:03;;;;;;;2.45;1.33;;;14.00;48.80;;;8.15;66.17;95718.50;4973383;28;20112;-54
2022/12/28 15:11:30;;;;;;;1.73;1.00;;;13.90;49.00;;;8.00;66.88;95727.06;4972365;28;20087;-54
2022/12/28 15:13:56;;;;;;;1.58;1.10;;;13.70;49.30;;;7.79;66.91;95728.63;4972903;28;20126;-52
2022/12/28 15:16:23;;;;;;;1.75;1.30;;;13.40;49.40;;;7.70;67.27;95720.28;4984379;28;20078;-52
2022/12/28 15:18:49;;;;;;;1.27;0.85;;;13.20;49.80;;;7.59;68.47;95721.19;4975612;28;20026;-51
2022/12/28 15:21:22;;;;;;;1.63;1.17;;;13.00;50.10;;;7.32;70.33;95716.50;4959007;28;20041;-55
2022/12/28 15:23:53;;;;;;;;;;;12.80;50.40;;;7.12;69.51;95721.47;4962551;28;20022;-53
2022/12/28 15:26:22;;;;;;;1.15;0.90;;;12.60;50.50;;;6.99;70.64;95711.16;4962874;28;20341;-54
2022/12/28 15:28:49;;;;;;;1.88;0.82;;;12.40;50.90;;;6.88;70.90;95715.50;4964997;28;20034;-51
2022/12/28 15:31:20;;;;;;;3.45;0.90;;;12.20;51.10;;;6.55;72.58;95721.47;4966963;28;20026;-52
2022/12/28 15:33:47;;;;;;;2.78;0.90;;;12.00;51.40;;;6.36;73.60;95712.91;4983182;28;20030;-54
2022/12/28 15:36:20;;;;;;;1.20;1.10;;;11.80;51.70;;;6.26;72.87;95721.44;4983348;28;20029;-51
2022/12/28 15:38:48;;;;;;;;;;;11.50;52.00;;;6.14;73.00;95715.38;4981747;28;20499;-52
2022/12/28 15:44:08;;;;;;;4.40;1.58;;;11.20;52.50;;;5.93;74.38;95704.38;4972460;28;20038;-53
2022/12/28 15:46:40;;;;;;;1.77;1.17;;;11.10;52.80;;;5.91;73.94;95700.34;4964760;28;20412;-53
2022/12/28 15:49:11;;;;;;;1.63;1.17;;;11.00;53.10;;;5.76;73.89;95698.94;4975153;28;20046;-55
2022/12/28 15:51:41;;;;;;;2.80;1.20;;;10.90;53.30;;;5.71;74.36;95695.41;4978565;28;20040;-53
2022/12/28 15:54:08;;;;;;;2.33;1.15;;;10.70;53.40;;;5.60;75.09;95683.78;4970821;28;20062;-54
2022/12/28 15:56:38;;;;;;;1.95;1.05;;;10.60;53.60;;;5.50;75.24;95694.16;4971764;28;20104;-55
2022/12/28 15:59:15;;;;;;;3.88;1.27;;;10.50;53.80;;;5.43;76.47;95682.91;4992575;28;20041;-53
2022/12/28 16:01:44;;;;;;;2.05;1.23;;;10.40;54.00;;;5.27;77.27;95681.75;4972413;28;20058;-55
2022/12/28 16:04:11;;;;;;;1.63;1.20;;;10.30;54.20;;;5.16;76.32;95674.59;4970690;28;20076;-52
2022/12/28 16:06:37;;;;;;;2.13;1.08;;;10.20;54.40;;;5.15;76.89;95681.72;4986446;28;20027;-53
2022/12/28 16:09:03;;;;;;;2.03;1.20;;;10.10;54.60;;;5.09;77.42;95678.16;4971252;28;20030;-56
2022/12/28 16:11:32;;;;;;;1.92;1.35;;;10.00;54.70;;;4.98;77.83;95670.19;4966334;28;20416;-54
2022/12/28 16:14:04;;;;;;;1.70;1.30;;;9.90;54.90;;;4.93;77.86;95676.16;4970839;28;20037;-54
2022/12/28 16:16:39;;;;;;;5.28;1.20;;;9.90;55.10;;;4.86;77.60;95671.00;4982588;28;20042;-52
2022/12/28 16:19:07;;;;;;;2.30;1.27;;;9.80;55.20;;;4.82;78.11;95669.81;4970212;28;20026;-55
2022/12/28 16:21:35;;;;;;;2.65;1.30;;;9.70;55.30;;;4.79;78.02;95658.91;4968733;28;20034;-52
2022/12/28 16:24:07;;;;;;;2.13;1.13;;;9.70;55.50;;;4.79;77.61;95666.81;4976537;28;20800;-52
2022/12/28 16:26:33;;;;;;;3.33;1.30;;;9.60;55.60;;;4.72;78.29;95663.50;4984602;28;20045;-52
2022/12/28 16:29:00;;;;;;;1.33;1.10;;;9.60;55.70;;;4.63;78.81;95663.00;4969318;28;20493;-51
2022/12/28 16:31:30;;;;;;;2.90;1.27;;;9.50;55.80;;;4.59;78.37;95662.66;4983511;28;20030;-52
2022/12/28 16:34:14;;;;;;;1.95;1.20;;;9.50;56.00;;;4.53;78.62;95665.38;4968183;28;20579;-52
2022/12/28 16:36:46;;;;;;;5.43;1.75;;;9.40;56.00;;;4.48;79.13;95660.78;4970869;28;20033;-54
2022/12/28 16:39:16;;;;;;;3.92;1.83;;;9.30;56.10;;;4.45;78.49;95663.03;4984806;28;20023;-55
2022/12/28 16:41:42;;;;;;;2.97;1.75;;;9.30;56.20;;;4.41;79.85;95673.25;4976496;28;20118;-54
2022/12/28 16:44:26;;;;;;;4.18;1.60;;;9.30;56.30;;;4.41;80.42;95665.31;4970108;28;20026;-51
2022/12/28 16:46:59;;;;;;;4.07;1.60;;;9.20;56.60;;;4.44;80.22;95666.72;4982961;28;20041;-52
2022/12/28 16:49:28;;;;;;;3.25;1.58;;;9.20;56.70;;;4.40;79.76;95667.16;4970121;28;20444;-56
2022/12/28 16:51:56;;;;;;;3.40;1.20;;;9.20;56.70;;;4.33;80.58;95661.19;4980095;28;20030;-52
2022/12/28 16:54:28;;;;;;;1.77;1.23;;;9.20;56.70;;;4.20;81.94;95664.00;4970146;28;20441;-53
2022/12/28 16:56:54;;;;;;;2.20;1.50;;;9.10;56.80;;;4.06;81.78;95650.16;4985814;28;20080;-52
2022/12/28 16:59:28;;;;;;;2.15;1.40;;;9.00;56.80;;;3.99;81.72;95653.91;4953067;28;20026;-53
2022/12/28 17:01:57;;;;;;;2.55;1.70;;;9.00;56.90;;;3.87;82.59;95644.09;4985169;28;20604;-53
2022/12/28 17:04:23;;;;;;;1.75;1.33;;;8.90;57.00;;;3.79;83.25;95644.41;4969464;28;20354;-53
2022/12/28 17:06:51;;;;;;;4.90;1.60;;;8.80;57.00;;;3.72;82.65;95646.28;4956409;28;20033;-54
2022/12/28 17:09:19;;;;;;;1.92;1.30;;;8.80;57.10;;;3.61;83.49;95636.50;4968698;28;20453;-51
2022/12/28 17:11:48;;;;;;;4.40;1.55;;;8.70;57.30;;;3.54;84.14;95630.47;4964098;28;20030;-53
2022/12/28 17:14:15;;;;;;;3.33;1.50;;;8.60;57.30;;;3.46;84.42;95644.75;4970133;23;20512;-55
2022/12/28 17:16:41;;;;;;;4.13;2.42;;;8.50;57.40;;;3.40;85.09;95635.09;4971525;28;20076;-60
2022/12/28 17:19:07;;;;;;;2.10;1.40;;;8.50;57.60;;;3.39;85.52;95636.91;4964200;28;20118;-52
2022/12/28 17:21:34;;;;;;;3.55;1.50;;;8.50;57.70;;;3.37;85.62;95638.16;4959112;28;20049;-55
2022/12/28 17:24:00;;;;;;;5.22;1.65;;;8.40;57.80;;;3.29;85.40;95643.69;4969425;28;20033;-53
2022/12/28 17:26:26;;;;;;;2.50;1.50;;;8.40;57.90;;;3.24;86.05;95641.72;4967174;28;20388;-55
2022/12/28 17:28:52;;;;;;;9.27;2.20;;;8.30;58.00;;;3.28;86.33;95636.81;4956606;28;20038;-52
2022/12/28 17:31:23;;;;;;;3.05;1.67;;;8.30;58.20;;;3.23;86.59;95634.84;4947405;28;20034;-52
2022/12/28 17:33:59;;;;;;;3.40;1.80;;;8.20;58.30;;;3.22;86.92;95634.03;4938544;28;20053;-56
2022/12/28 17:36:26;;;;;;;2.35;1.58;;;8.20;58.40;;;3.17;86.04;95631.25;4939927;28;20031;-52
2022/12/28 17:38:58;;;;;;;2.05;1.40;;;8.20;58.40;;;3.14;86.38;95629.06;4962836;28;20551;-55
2022/12/28 17:41:26;;;;;;;2.13;1.40;;;8.10;58.50;;;3.13;86.74;95624.78;4970951;28;20030;-53
2022/12/28 17:44:02;;;;;;;2.67;1.20;;;8.10;58.60;;;3.13;86.30;95621.34;4967238;28;20041;-54
2022/12/28 17:46:31;;;;;;;4.07;1.40;;;8.10;58.60;;;3.15;85.51;95608.78;4962019;28;20041;-54
2022/12/28 17:48:59;;;;;;;3.55;1.55;;;8.10;58.80;;;3.20;85.44;95606.34;4970679;28;20482;-50
2022/12/28 17:51:28;;;;;;;1.98;1.20;;;8.10;58.80;;;3.29;84.33;95610.28;4948694;28;20022;-51
2022/12/28 17:53:56;;;;;;;1.70;1.00;;;8.10;59.00;;;3.37;83.92;95610.00;4952733;28;20182;-56
2022/12/28 17:56:22;;;;;;;1.48;1.20;;;8.20;59.10;;;3.43;83.86;95603.84;4976245;28;20049;-51
2022/12/28 17:58:52;;;;;;;1.88;1.20;;;8.20;59.10;;;3.44;84.73;95602.81;4963551;28;20032;-55
2022/12/28 18:01:18;;;;;;;3.70;1.70;;;8.20;59.10;;;3.43;85.82;95613.59;4955574;28;20989;-52
2022/12/28 18:03:46;;;;;;;2.00;1.20;;;8.20;59.00;;;3.38;85.00;95608.16;4965268;28;20029;-53
2022/12/28 18:06:12;;;;;;;5.00;2.00;;;8.20;59.00;;;3.36;85.67;95608.38;4950780;28;20022;-51
2022/12/28 18:08:41;;;;;;;4.20;1.73;;;8.20;59.10;;;3.33;85.39;95603.56;4940396;28;20027;-57
2022/12/28 18:11:09;;;;;;;4.30;1.40;;;8.20;59.20;;;3.30;85.10;95606.63;4952164;28;20030;-56
2022/12/28 18:13:41;;;;;;;2.75;1.67;;;8.20;59.10;;;3.24;85.51;95605.66;4969100;28;20042;-55
2022/12/28 18:16:14;;;;;;;2.30;1.33;;;8.10;59.00;;;3.21;85.13;95600.03;4968048;28;20531;-56
2022/12/28 18:18:40;;;;;;;2.20;1.10;;;8.10;59.10;;;3.18;85.34;95603.91;4984452;28;20045;-59
2022/12/28 18:21:15;;;;;;;4.25;1.38;;;8.10;59.10;;;3.17;85.01;95598.88;4984183;28;20042;-58
2022/12/28 18:23:53;;;;;;;2.25;1.15;;;8.10;59.30;;;3.11;85.84;95587.38;4960109;28;20460;-52
2022/12/28 18:26:25;;;;;;;1.73;1.40;;;8.10;59.30;;;3.09;84.87;95592.03;4963570;28;20033;-53
2022/12/28 18:28:53;;;;;;;3.10;1.40;;;8.00;59.30;;;3.14;84.82;95589.56;4954607;28;20018;-54
2022/12/28 18:31:19;;;;;;;3.15;1.48;;;8.00;59.40;;;3.19;84.58;95591.53;4967781;28;20029;-54
2022/12/28 18:33:49;;;;;;;2.20;1.10;;;8.00;59.50;;;3.19;84.87;95588.91;4949507;28;20022;-54
2022/12/28 18:36:16;;;;;;;2.53;1.33;;;8.00;59.50;;;3.19;84.20;95591.53;4961266;28;20045;-51
2022/12/28 18:38:49;;;;;;;2.08;1.30;;;8.00;59.50;;;3.21;83.83;95587.66;4954759;28;20052;-51
2022/12/28 18:41:22;;;;;;;1.90;1.27;;;8.00;59.50;;;3.23;83.62;95582.19;4972076;28;20406;-48
2022/12/28 18:43:50;;;;;;;2.53;1.08;;;8.00;59.50;;;3.31;82.47;95581.09;4952481;28;20469;-50
2022/12/28 18:46:17;;;;;;;1.75;0.98;;;8.10;59.60;;;3.35;83.15;95584.91;4954490;28;20077;-51
2022/12/28 18:48:43;;;;;;;1.55;1.10;;;8.10;59.60;;;3.39;80.46;95584.25;4957197;28;20030;-50
2022/12/28 18:51:16;;;;;;;1.63;1.23;;;8.10;59.60;;;3.45;81.70;95586.00;4952303;28;20397;-54
2022/12/28 18:53:43;;;;;;;1.42;1.17;;;8.10;59.60;;;3.47;81.31;95586.56;4949831;28;20037;-49
2022/12/28 18:56:19;;;;;;;1.60;1.08;;;8.20;59.60;;;3.44;81.08;95573.84;4952359;28;20296;-48
2022/12/28 18:58:52;;;;;;;1.83;1.30;;;8.20;59.40;;;3.42;81.22;95578.56;4953788;28;20050;-48
2022/12/28 19:01:24;;;;;;;1.83;1.10;;;8.20;59.40;;;3.44;81.24;95576.47;4944939;28;20039;-58
2022/12/28 19:03:59;;;;;;;1.88;1.20;;;8.20;59.40;;;3.45;80.39;95575.47;4950158;28;20065;-50
2022/12/28 19:06:29;;;;;;;2.28;1.10;;;8.20;59.30;;;3.47;80.21;95575.25;4946250;28;20022;-50
2022/12/28 19:09:03;;;;;;;1.55;1.20;;;8.20;59.40;;;3.48;79.69;95574.25;4948437;28;20023;-47
2022/12/28 19:11:30;;;;;;;2.08;1.08;;;8.30;59.30;;;3.51;80.02;95568.53;4968633;28;20026;-48
2022/12/28 19:13:56;;;;;;;2.05;0.90;;;8.30;59.30;;;3.54;78.88;95564.63;4949495;28;20105;-48
2022/12/28 19:16:22;;;;;;;2.22;1.30;;;8.30;59.20;;;3.55;78.55;95568.91;4927746;29;20029;-52
2022/12/28 19:18:48;;;;;;;2.35;1.10;;;8.30;59.10;;;3.52;78.72;95556.16;4941093;28;20019;-53
2022/12/28 19:21:26;;;;;;;1.85;1.00;;;8.30;59.10;;;3.54;78.57;95557.56;4947423;28;20114;-51
2022/12/28 19:24:25;;;;;;;1.30;1.00;;;8.30;59.60;;;3.57;78.13;95548.38;4947364;28;20023;-51
2022/12/28 19:26:52;;;;;;;4.13;0.85;;;8.30;59.00;;;3.57;78.58;95543.13;4948964;28;20137;-51
2022/12/28 19:29:18;;;;;;;2.67;1.20;;;8.30;59.00;;;3.57;78.16;95543.13;4949020;28;20123;-53
2022/12/28 19:31:44;;;;;;;1.50;0.90;;;8.30;59.00;;;3.61;77.81;95536.41;4951638;28;20565;-55
2022/12/28 19:34:14;;;;;;;2.33;1.25;;;8.30;59.00;;;3.60;78.68;95532.94;4952245;28;20030;-50
2022/12/28 19:36:43;;;;;;;2.63;1.15;;;8.30;59.00;;;3.58;76.73;95529.75;4951722;28;20053;-57
2022/12/28 19:39:10;;;;;;;2.00;1.20;;;8.30;58.90;;;3.62;76.44;95533.53;4952270;28;20022;-55
2022/12/28 19:41:36;;;;;;;1.42;1.10;;;8.30;58.90;;;3.57;78.49;95528.13;4952412;28;20424;-48
2022/12/28 19:44:13;;;;;;;2.03;0.85;;;8.30;58.90;;;3.42;78.24;95525.88;4945179;28;20037;-51
2022/12/28 19:46:41;;;;;;;2.67;1.33;;;8.30;58.70;;;3.36;78.29;95521.50;4944058;28;20045;-52
2022/12/28 19:49:09;;;;;;;2.20;1.02;;;8.20;58.70;;;3.26;79.17;95521.22;4952463;28;20034;-50
2022/12/28 19:51:37;;;;;;;2.78;1.33;;;8.20;58.70;;;3.21;78.50;95521.84;4942933;28;20030;-53
2022/12/28 19:54:03;;;;;;;1.13;0.80;;;8.10;58.70;;;3.30;76.51;95522.38;4952577;28;20046;-51
2022/12/28 19:56:30;;;;;;;4.00;0.90;;;8.10;58.80;;;3.31;77.08;95512.66;4953024;28;20573;-50
2022/12/28 19:58:57;;;;;;;1.17;0.80;;;8.10;58.80;;;3.27;76.68;95516.75;4962708;28;20029;-56
2022/12/28 20:01:27;;;;;;;1.38;1.10;;;8.10;58.70;;;3.27;76.25;95516.75;4951799;28;20478;-52
2022/12/28 20:03:55;;;;;;;2.25;0.88;;;8.10;58.70;;;3.22;76.90;95514.75;4951608;28;20482;-50
2022/12/28 20:06:26;;;;;;;2.17;1.10;;;8.10;58.70;;;3.16;77.48;95516.44;4951054;28;20037;-55
2022/12/28 20:09:00;;;;;;;3.67;1.38;;;8.00;58.60;;;3.07;77.83;95509.88;4946234;28;20027;-50
2022/12/28 20:11:28;;;;;;;1.02;0.82;;;8.00;58.60;;;3.01;77.92;95516.03;4946842;28;20058;-53
2022/12/28 20:13:58;;;;;;;1.92;0.93;;;7.90;58.60;;;2.92;78.26;95501.53;4951061;28;20104;-50
2022/12/28 20:16:28;;;;;;;1.35;1.00;;;7.80;58.50;;;2.84;78.17;95501.81;4950178;28;20125;-54
2022/12/28 20:18:55;;;;;;;5.97;1.15;;;7.80;58.60;;;2.76;78.63;95503.72;4951453;28;20026;-53
2022/12/28 20:21:24;;;;;;;3.38;0.98;;;7.70;58.50;;;2.68;79.06;95508.44;4953047;28;20034;-52
2022/12/28 20:23:53;;;;;;;1.85;1.00;;;7.60;58.50;;;2.59;81.19;95494.75;4934511;28;20050;-53
2022/12/28 20:26:23;;;;;;;2.22;1.02;;;7.60;58.60;;;2.54;80.06;95503.31;4951854;28;20026;-51
2022/12/28 20:28:50;;;;;;;3.22;1.05;;;7.50;58.60;;;2.45;80.27;95504.59;4941885;28;20022;-51
2022/12/28 20:31:19;;;;;;;1.58;0.98;;;7.50;58.70;;;2.35;81.23;95501.66;4951767;28;20778;-52
2022/12/28 20:33:48;;;;;;;1.00;0.80;;;7.30;58.70;;;2.31;81.58;95508.34;4949109;28;20548;-51
2022/12/28 20:36:23;;;;;;;1.00;0.68;;;7.30;58.90;;;2.22;82.80;95514.88;4950353;28;20100;-53
2022/12/28 20:38:50;;;;;;;1.38;0.95;;;7.20;58.90;;;2.07;82.58;95502.88;4951337;28;20137;-50
2022/12/28 20:44:12;;;;;;;1.38;0.90;;;7.00;59.00;;;1.96;81.64;95515.88;4941721;28;20026;-50
2022/12/28 20:46:41;;;;;;;1.25;0.82;;;6.90;59.10;;;1.90;82.48;95491.25;4949103;28;20030;-55
2022/12/28 20:49:08;;;;;;;1.58;0.95;;;6.90;59.20;;;1.85;83.75;95483.22;4951429;28;20105;-48
2022/12/28 20:51:34;;;;;;;1.38;1.10;;;6.90;59.30;;;1.81;83.06;95488.06;4956057;28;20321;-48
2022/12/28 20:54:01;;;;;;;1.02;0.93;;;6.80;59.30;;;1.76;82.71;95495.78;4948846;28;20131;-52
2022/12/28 20:56:27;;;;;;;2.03;1.10;;;6.80;59.40;;;1.80;82.72;95502.22;4952978;28;20042;-54
2022/12/28 20:58:54;;;;;;;1.60;1.20;;;6.80;59.40;;;1.79;83.16;95513.75;4948448;28;20033;-50
2022/12/28 21:01:20;;;;;;;3.08;1.13;;;6.70;59.40;;;1.74;83.73;95520.66;4950541;28;20053;-56
2022/12/28 21:03:47;;;;;;;1.70;1.15;;;6.70;59.50;;;1.70;83.64;95509.75;4950312;28;20057;-55
2022/12/28 21:06:13;;;;;;;2.30;1.00;;;6.60;59.50;;;1.67;84.02;95497.06;4950005;28;20146;-53
2022/12/28 21:08:42;;;;;;;1.83;1.15;;;6.60;59.60;;;1.61;84.34;95506.56;4949400;28;20114;-48
2022/12/28 21:11:11;;;;;;;1.35;0.95;;;6.60;59.60;;;1.55;84.83;95501.34;4945142;28;20035;-49
2022/12/28 21:13:36;;;;;;;1.58;1.02;;;6.50;60.30;;;1.52;85.15;95505.19;4947920;28;20139;-52
2022/12/28 21:16:07;;;;;;;1.15;0.90;;;6.50;59.70;;;1.51;85.22;95505.41;4949071;28;20501;-48
2022/12/28 21:18:34;;;;;;;1.40;0.98;;;6.50;59.80;;;1.43;85.46;95501.19;4965259;28;20109;-56
2022/12/28 21:21:01;;;;;;;2.47;1.08;;;6.40;59.80;;;1.39;86.28;95490.31;4949647;28;20477;-52
2022/12/28 21:23:31;;;;;;;1.65;0.88;;;6.40;59.90;;;1.30;86.14;95490.78;4933566;28;20034;-49
2022/12/28 21:26:15;;;;;;;1.70;1.00;;;6.30;59.90;;;1.29;86.69;95497.03;4934700;28;20034;-49
2022/12/28 21:28:42;;;;;;;2.28;1.05;;;6.30;60.00;;;1.27;86.72;95496.44;4949000;28;20026;-57
2022/12/28 21:31:13;;;;;;;1.58;0.93;;;6.20;60.00;;;1.23;86.93;95490.00;4949053;28;20041;-53
2022/12/28 21:33:40;;;;;;;1.95;1.20;;;6.20;60.10;;;1.21;87.40;95486.75;4943288;28;20033;-55
2022/12/28 21:36:18;;;;;;;3.15;1.27;;;6.20;60.20;;;1.15;87.39;95486.56;4951116;28;20073;-51
2022/12/28 21:38:48;;;;;;;1.05;0.85;;;6.10;60.20;;;1.13;86.55;95490.44;4949495;28;20045;-54
2022/12/28 21:44:11;;;;;;;2.03;1.05;;;6.10;60.40;;;1.01;88.88;95479.78;4945283;28;20110;-55
2022/12/28 21:46:39;;;;;;;2.70;1.40;;;6.00;60.40;;;1.01;88.08;95482.41;4952343;28;20565;-48
2022/12/28 21:49:08;;;;;;;0.80;0.77;;;6.00;60.50;;;1.00;88.34;95475.53;4948109;28;20421;-50
2022/12/28 21:51:36;;;;;;;0.82;0.70;;;6.00;60.60;;;1.00;87.12;95487.84;4947621;28;20042;-54
2022/12/28 21:54:12;;;;;;;1.45;0.95;;;5.90;60.60;;;0.97;88.04;95483.00;4949710;28;20031;-49
2022/12/28 21:56:41;;;;;;;2.15;0.90;;;5.90;60.70;;;0.92;88.50;95481.81;4948773;28;20034;-58
2022/12/28 21:59:13;;;;;;;3.85;1.00;;;5.90;60.80;;;0.90;88.00;95490.91;4956101;28;20388;-54
2022/12/28 22:07:20;;;;;;;1.35;1.10;;;5.80;61.00;;;0.90;88.71;95488.28;4965291;28;20065;-49
2022/12/28 22:12:37;;;;;;;1.63;1.00;;;5.80;61.10;;;0.85;88.56;95483.66;4970160;28;20037;-50
2022/12/28 22:18:14;;;;;;;1.52;1.10;;;5.80;61.40;;;0.88;88.12;95485.88;4952724;28;20100;-49
2022/12/28 22:20:45;;;;;;;0.98;0.70;;;5.70;61.30;;;0.85;87.07;95481.03;4968936;28;20066;-52